Time,TemperatureF,DewpointF,PressureIn,WindDirection,WindDirectionDegrees,WindSpeedMPH,WindSpeedGustMPH,Humidity,HourlyPrecipIn,Conditions,Clouds,dailyrainin,SoftwareType,DateUTC
2013-05-23 00:08:00,52.8,53.0,29.92,ESE,119,0.0,-999.0,100,-99.99,,,0.00,weatherlink.com 1.10,2013-05-23 04:08:00,
2013-05-23 01:14:00,52.9,53.0,29.90,ESE,119,0.0,-999.0,100,-99.99,,,0.00,weatherlink.com 1.10,2013-05-23 05:14:00,
2013-05-23 01:23:00,53.1,53.0,29.90,ESE,119,0.0,-999.0,100,-99.99,,,0.00,weatherlink.com 1.10,2013-05-23 05:23:00,
2013-05-23 01:38:00,53.1,53.0,29.90,ESE,119,0.0,-999.0,100,-99.99,,,0.00,weatherlink.com 1.10,2013-05-23 05:38:00,
2013-05-23 01:52:00,53.1,53.0,29.90,ESE,119,0.0,-999.0,100,-99.99,,,0.00,weatherlink.com 1.10,2013-05-23 05:52:00,
2013-05-23 02:08:00,53.1,53.0,29.90,ESE,119,0.0,-999.0,100,-99.99,,,0.00,weatherlink.com 1.10,2013-05-23 06:08:00,
2013-05-23 02:22:00,53.1,53.0,29.90,ESE,119,0.0,-999.0,100,-99.99,,,0.00,weatherlink.com 1.10,2013-05-23 06:22:00,
2013-05-23 02:37:00,53.1,53.0,29.88,ESE,119,0.0,-999.0,100,-99.99,,,0.00,weatherlink.com 1.10,2013-05-23 06:37:00,
2013-05-23 02:52:00,53.1,53.0,29.87,ESE,119,0.0,-999.0,100,-99.99,,,0.00,weatherlink.com 1.10,2013-05-23 06:52:00,
2013-05-23 03:07:00,53.1,53.0,29.87,ESE,119,0.0,-999.0,100,-99.99,,,0.00,weatherlink.com 1.10,2013-05-23 07:07:00,
2013-05-23 03:22:00,53.1,53.0,29.86,ESE,119,0.0,-999.0,100,-99.99,,,0.00,weatherlink.com 1.10,2013-05-23 07:22:00,
2013-05-23 03:37:00,53.1,53.0,29.86,ESE,119,0.0,-999.0,100,-99.99,,,0.00,weatherlink.com 1.10,2013-05-23 07:37:00,
2013-05-23 03:52:00,53.2,53.0,29.86,ESE,119,0.0,-999.0,100,-99.99,,,0.00,weatherlink.com 1.10,2013-05-23 07:52:00,
2013-05-23 04:08:00,53.2,53.0,29.86,ESE,119,0.0,-999.0,100,-99.99,,,0.00,weatherlink.com 1.10,2013-05-23 08:08:00,
2013-05-23 04:23:00,53.2,53.0,29.86,ESE,119,0.0,-999.0,100,-99.99,,,0.00,weatherlink.com 1.10,2013-05-23 08:23:00,
2013-05-23 04:38:00,53.3,53.0,29.86,ESE,119,0.0,-999.0,100,-99.99,,,0.00,weatherlink.com 1.10,2013-05-23 08:38:00,
2013-05-23 04:53:00,53.3,53.0,29.86,ESE,119,0.0,-999.0,100,-99.99,,,0.00,weatherlink.com 1.10,2013-05-23 08:53:00,
2013-05-23 05:08:00,53.5,54.0,29.87,ESE,119,0.0,-999.0,100,-99.99,,,0.00,weatherlink.com 1.10,2013-05-23 09:08:00,
2013-05-23 05:23:00,53.5,54.0,29.87,ESE,119,0.0,-999.0,100,-99.99,,,0.00,weatherlink.com 1.10,2013-05-23 09:23:00,
2013-05-23 05:38:00,53.5,54.0,29.87,ESE,119,0.0,-999.0,100,-99.99,,,0.00,weatherlink.com 1.10,2013-05-23 09:38:00,
2013-05-23 05:53:00,53.6,54.0,29.87,ESE,119,0.0,-999.0,100,-99.99,,,0.00,weatherlink.com 1.10,2013-05-23 09:53:00,
2013-05-23 06:08:00,53.6,54.0,29.89,ESE,119,0.0,-999.0,100,-99.99,,,0.01,weatherlink.com 1.10,2013-05-23 10:08:00,
2013-05-23 06:23:00,53.9,54.0,29.89,ESE,119,0.0,-999.0,100,-99.99,,,0.01,weatherlink.com 1.10,2013-05-23 10:23:00,
2013-05-23 06:38:00,54.1,54.0,29.88,ESE,119,0.0,-999.0,100,-99.99,,,0.01,weatherlink.com 1.10,2013-05-23 10:38:00,
2013-05-23 06:52:00,54.4,54.0,29.89,ESE,120,0.0,-999.0,100,-99.99,,,0.01,weatherlink.com 1.10,2013-05-23 10:52:00,
2013-05-23 07:08:00,54.7,55.0,29.89,ESE,119,0.0,-999.0,100,-99.99,,,0.01,weatherlink.com 1.10,2013-05-23 11:08:00,
2013-05-23 07:22:00,54.8,55.0,29.88,ESE,119,0.0,-999.0,100,-99.99,,,0.01,weatherlink.com 1.10,2013-05-23 11:22:00,
2013-05-23 07:37:00,55.0,55.0,29.89,ESE,119,0.0,-999.0,100,-99.99,,,0.01,weatherlink.com 1.10,2013-05-23 11:37:00,
2013-05-23 07:52:00,55.0,55.0,29.89,ESE,119,0.0,-999.0,100,-99.99,,,0.01,weatherlink.com 1.10,2013-05-23 11:52:00,
2013-05-23 08:07:00,55.1,55.0,29.89,ESE,119,0.0,-999.0,100,-99.99,,,0.01,weatherlink.com 1.10,2013-05-23 12:07:00,
2013-05-23 08:22:00,55.3,55.0,29.89,ESE,119,0.0,-999.0,100,-99.99,,,0.01,weatherlink.com 1.10,2013-05-23 12:22:00,
2013-05-23 08:37:00,55.4,55.0,29.89,ESE,119,0.0,-999.0,100,-99.99,,,0.01,weatherlink.com 1.10,2013-05-23 12:37:00,
2013-05-23 08:52:00,55.7,56.0,29.88,ESE,119,0.0,-999.0,100,-99.99,,,0.01,weatherlink.com 1.10,2013-05-23 12:52:00,
2013-05-23 09:07:00,55.9,56.0,29.89,ESE,119,0.0,-999.0,100,-99.99,,,0.01,weatherlink.com 1.10,2013-05-23 13:07:00,
2013-05-23 09:22:00,56.0,56.0,29.88,ESE,120,0.0,-999.0,100,-99.99,,,0.01,weatherlink.com 1.10,2013-05-23 13:22:00,
2013-05-23 09:37:00,56.5,57.0,29.89,ESE,119,0.0,-999.0,100,-99.99,,,0.01,weatherlink.com 1.10,2013-05-23 13:37:00,
2013-05-23 09:52:00,56.9,57.0,29.89,ESE,120,0.0,-999.0,100,-99.99,,,0.01,weatherlink.com 1.10,2013-05-23 13:52:00,
2013-05-23 10:08:00,57.0,57.0,29.88,ESE,119,0.0,-999.0,100,-99.99,,,0.01,weatherlink.com 1.10,2013-05-23 14:08:00,
2013-05-23 10:22:00,57.2,57.0,29.87,ESE,119,0.0,-999.0,100,-99.99,,,0.02,weatherlink.com 1.10,2013-05-23 14:22:00,
2013-05-23 10:37:00,57.5,58.0,29.86,ESE,120,0.0,-999.0,100,-99.99,,,0.02,weatherlink.com 1.10,2013-05-23 14:37:00,
2013-05-23 10:53:00,57.8,58.0,29.87,ESE,120,0.0,-999.0,100,-99.99,,,0.03,weatherlink.com 1.10,2013-05-23 14:53:00,
2013-05-23 11:08:00,58.4,58.0,29.86,ESE,119,0.0,-999.0,100,-99.99,,,0.03,weatherlink.com 1.10,2013-05-23 15:08:00,
2013-05-23 11:23:00,60.5,61.0,29.86,SE,124,0.0,-999.0,100,-99.99,,,0.03,weatherlink.com 1.10,2013-05-23 15:23:00,
2013-05-23 11:38:00,61.5,62.0,29.86,SE,130,0.0,-999.0,100,-99.99,,,0.03,weatherlink.com 1.10,2013-05-23 15:38:00,
2013-05-23 11:53:00,62.3,62.0,29.87,SE,131,0.0,-999.0,100,-99.99,,,0.03,weatherlink.com 1.10,2013-05-23 15:53:00,
2013-05-23 12:07:00,62.7,63.0,29.87,SE,131,0.0,-999.0,100,-99.99,,,0.03,weatherlink.com 1.10,2013-05-23 16:07:00,
2013-05-23 12:23:00,63.9,64.0,29.86,SE,131,0.0,-999.0,100,-99.99,,,0.03,weatherlink.com 1.10,2013-05-23 16:23:00,
2013-05-23 12:37:00,65.2,65.0,29.85,SE,130,0.0,-999.0,100,-99.99,,,0.03,weatherlink.com 1.10,2013-05-23 16:37:00,
2013-05-23 12:52:00,66.4,66.0,29.85,SE,130,0.0,-999.0,100,-99.99,,,0.03,weatherlink.com 1.10,2013-05-23 16:52:00,
2013-05-23 13:07:00,67.6,68.0,29.84,SE,130,0.0,-999.0,100,-99.99,,,0.03,weatherlink.com 1.10,2013-05-23 17:07:00,
2013-05-23 13:22:00,69.1,69.0,29.83,SE,130,0.0,-999.0,100,-99.99,,,0.03,weatherlink.com 1.10,2013-05-23 17:22:00,
2013-05-23 13:37:00,71.1,71.0,29.82,SE,130,0.0,-999.0,100,-99.99,,,0.03,weatherlink.com 1.10,2013-05-23 17:37:00,
2013-05-23 13:52:00,73.3,73.0,29.81,SE,131,0.0,-999.0,100,-99.99,,,0.03,weatherlink.com 1.10,2013-05-23 17:52:00,
2013-05-23 14:07:00,75.6,76.0,29.80,South,175,1.0,-999.0,100,-99.99,,,0.03,weatherlink.com 1.10,2013-05-23 18:07:00,
2013-05-23 14:22:00,77.0,77.0,29.80,SSW,198,2.0,-999.0,100,-99.99,,,0.03,weatherlink.com 1.10,2013-05-23 18:22:00,
2013-05-23 14:37:00,78.3,69.0,29.81,South,171,0.0,-999.0,73,-99.99,,,0.03,weatherlink.com 1.10,2013-05-23 18:37:00,
2013-05-23 14:52:00,75.4,74.0,29.82,NW,309,0.0,-999.0,95,-99.99,,,0.09,weatherlink.com 1.10,2013-05-23 18:52:00,
2013-05-23 15:07:00,73.2,73.0,29.82,NW,309,0.0,-999.0,100,-99.99,,,0.09,weatherlink.com 1.10,2013-05-23 19:07:00,
2013-05-23 15:22:00,72.8,73.0,29.82,SW,226,0.0,-999.0,100,-99.99,,,0.09,weatherlink.com 1.10,2013-05-23 19:22:00,
2013-05-23 15:37:00,72.7,73.0,29.82,SW,223,0.0,-999.0,100,-99.99,,,0.09,weatherlink.com 1.10,2013-05-23 19:37:00,
2013-05-23 15:52:00,72.1,72.0,29.82,SSW,206,0.0,-999.0,100,-99.99,,,0.09,weatherlink.com 1.10,2013-05-23 19:52:00,
2013-05-23 16:07:00,71.8,72.0,29.82,SSW,206,0.0,-999.0,100,-99.99,,,0.09,weatherlink.com 1.10,2013-05-23 20:07:00,
2013-05-23 16:22:00,71.5,72.0,29.82,SSW,206,0.0,-999.0,100,-99.99,,,0.09,weatherlink.com 1.10,2013-05-23 20:22:00,
2013-05-23 16:38:00,71.3,71.0,29.81,SSW,206,0.0,-999.0,100,-99.99,,,0.09,weatherlink.com 1.10,2013-05-23 20:38:00,
2013-05-23 16:53:00,71.1,71.0,29.81,SSW,206,0.0,-999.0,100,-99.99,,,0.10,weatherlink.com 1.10,2013-05-23 20:53:00,
2013-05-23 17:08:00,70.8,71.0,29.81,SSW,206,0.0,-999.0,100,-99.99,,,0.10,weatherlink.com 1.10,2013-05-23 21:08:00,
2013-05-23 17:22:00,70.6,71.0,29.81,SSW,206,0.0,-999.0,100,-99.99,,,0.13,weatherlink.com 1.10,2013-05-23 21:22:00,
2013-05-23 17:38:00,70.3,70.0,29.80,SSW,206,0.0,-999.0,100,-99.99,,,0.14,weatherlink.com 1.10,2013-05-23 21:38:00,
2013-05-23 17:53:00,69.9,70.0,29.80,ESE,113,0.0,-999.0,100,-99.99,,,0.15,weatherlink.com 1.10,2013-05-23 21:53:00,
2013-05-23 18:07:00,69.6,70.0,29.80,ESE,113,0.0,-999.0,100,-99.99,,,0.16,weatherlink.com 1.10,2013-05-23 22:07:00,
2013-05-23 18:23:00,69.4,69.0,29.81,NW,322,0.0,-999.0,100,-99.99,,,0.18,weatherlink.com 1.10,2013-05-23 22:23:00,
2013-05-23 18:38:00,68.8,69.0,29.81,NW,320,4.0,-999.0,100,-99.99,,,0.20,weatherlink.com 1.10,2013-05-23 22:38:00,
2013-05-23 18:53:00,68.4,68.0,29.81,SE,138,0.0,-999.0,100,-99.99,,,0.23,weatherlink.com 1.10,2013-05-23 22:53:00,
2013-05-23 19:07:00,68.3,68.0,29.82,South,172,0.0,-999.0,100,-99.99,,,0.24,weatherlink.com 1.10,2013-05-23 23:07:00,
2013-05-23 19:22:00,67.9,68.0,29.82,SE,141,0.0,-999.0,100,-99.99,,,0.24,weatherlink.com 1.10,2013-05-23 23:22:00,
2013-05-23 19:37:00,67.6,68.0,29.82,WSW,253,0.0,-999.0,100,-99.99,,,0.25,weatherlink.com 1.10,2013-05-23 23:37:00,
2013-05-23 19:52:00,67.3,67.0,29.82,WSW,253,0.0,-999.0,100,-99.99,,,0.26,weatherlink.com 1.10,2013-05-23 23:52:00,
2013-05-23 20:07:00,66.9,67.0,29.81,WSW,253,0.0,-999.0,100,-99.99,,,0.26,weatherlink.com 1.10,2013-05-24 00:07:00,
2013-05-23 20:23:00,66.8,67.0,29.81,WSW,253,0.0,-999.0,100,-99.99,,,0.26,weatherlink.com 1.10,2013-05-24 00:23:00,
2013-05-23 20:38:00,66.4,66.0,29.80,WSW,251,0.0,-999.0,100,-99.99,,,0.26,weatherlink.com 1.10,2013-05-24 00:38:00,
2013-05-23 20:53:00,66.4,66.0,29.80,WSW,237,0.0,-999.0,100,-99.99,,,0.26,weatherlink.com 1.10,2013-05-24 00:53:00,
2013-05-23 21:07:00,66.4,66.0,29.80,SW,226,0.0,-999.0,100,-99.99,,,0.26,weatherlink.com 1.10,2013-05-24 01:07:00,
2013-05-23 21:22:00,66.4,66.0,29.80,SSW,213,0.0,-999.0,100,-99.99,,,0.26,weatherlink.com 1.10,2013-05-24 01:22:00,
2013-05-23 21:38:00,66.4,66.0,29.80,South,189,0.0,-999.0,100,-99.99,,,0.26,weatherlink.com 1.10,2013-05-24 01:38:00,
2013-05-23 21:53:00,66.4,66.0,29.80,South,171,0.0,-999.0,100,-99.99,,,0.26,weatherlink.com 1.10,2013-05-24 01:53:00,
2013-05-23 22:08:00,66.4,66.0,29.80,SE,141,0.0,-999.0,100,-99.99,,,0.26,weatherlink.com 1.10,2013-05-24 02:08:00,
2013-05-23 22:23:00,66.4,66.0,29.79,SE,124,0.0,-999.0,100,-99.99,,,0.26,weatherlink.com 1.10,2013-05-24 02:23:00,
2013-05-23 22:38:00,66.4,66.0,29.79,ESE,120,2.0,-999.0,100,-99.99,,,0.26,weatherlink.com 1.10,2013-05-24 02:38:00,
2013-05-23 22:53:00,66.4,66.0,29.78,East,97,0.0,-999.0,100,-99.99,,,0.29,weatherlink.com 1.10,2013-05-24 02:53:00,
2013-05-23 23:08:00,66.3,66.0,29.78,South,169,3.0,-999.0,100,-99.99,,,0.30,weatherlink.com 1.10,2013-05-24 03:08:00,
2013-05-23 23:23:00,66.1,66.0,29.77,SSW,205,1.0,-999.0,100,-99.99,,,0.31,weatherlink.com 1.10,2013-05-24 03:23:00,
2013-05-23 23:38:00,65.8,66.0,29.77,ESE,120,0.0,-999.0,100,-99.99,,,0.31,weatherlink.com 1.10,2013-05-24 03:38:00,
2013-05-23 23:53:00,65.6,66.0,29.76,ESE,123,0.0,-999.0,100,-99.99,,,0.32,weatherlink.com 1.10,2013-05-24 03:53:00,